createdAt,value
2023-05-22T00:02:58.679Z,34.00
2023-05-22T00:06:01.114Z,34.00
2023-05-22T00:09:03.438Z,33.60
2023-05-22T00:12:06.230Z,33.80
2023-05-22T00:15:08.662Z,33.60
2023-05-22T00:18:13.773Z,33.60
2023-05-22T00:21:17.050Z,33.70
2023-05-22T00:24:19.826Z,33.70
2023-05-22T00:27:21.828Z,33.80
2023-05-22T00:30:24.001Z,33.70
2023-05-22T00:33:25.935Z,33.70
2023-05-22T00:36:28.137Z,33.70
2023-05-22T00:39:30.104Z,33.70
2023-05-22T00:42:34.434Z,33.70
2023-05-22T00:45:36.474Z,33.70
2023-05-22T00:48:38.793Z,33.60
2023-05-22T00:51:40.841Z,33.60
2023-05-22T00:54:43.685Z,33.60
2023-05-22T00:57:46.107Z,33.60
2023-05-22T01:00:48.777Z,33.50
2023-05-22T01:03:52.156Z,33.50
2023-05-22T01:06:55.357Z,33.50
2023-05-22T01:09:57.648Z,33.50
2023-05-22T01:13:28.881Z,33.50
2023-05-22T01:16:46.519Z,33.50
2023-05-22T01:20:22.892Z,33.50
2023-05-22T01:23:36.684Z,33.50
2023-05-22T01:26:54.056Z,33.50
2023-05-22T01:30:21.371Z,33.50
2023-05-22T01:33:27.446Z,33.50
2023-05-22T01:36:35.082Z,33.60
2023-05-22T01:39:38.215Z,33.60
2023-05-22T01:42:41.320Z,33.60
2023-05-22T01:45:43.783Z,33.50
2023-05-22T01:48:45.830Z,33.60
2023-05-22T01:51:55.261Z,33.60
2023-05-22T01:55:35.178Z,33.60
2023-05-22T01:58:49.476Z,33.60
2023-05-22T02:01:55.259Z,33.60
2023-05-22T02:05:00.773Z,33.60
2023-05-22T02:08:04.350Z,33.60
2023-05-22T02:11:07.302Z,33.60
2023-05-22T02:14:12.209Z,33.60
2023-05-22T02:17:14.673Z,33.60
2023-05-22T02:20:16.966Z,33.60
2023-05-22T02:23:19.372Z,33.60
2023-05-22T02:26:21.412Z,33.60
2023-05-22T02:29:23.912Z,33.60
2023-05-22T02:32:26.045Z,33.60
2023-05-22T02:35:28.430Z,33.70
2023-05-22T02:38:30.415Z,33.70
2023-05-22T02:41:32.712Z,33.70
2023-05-22T02:44:34.664Z,33.70
2023-05-22T02:47:37.162Z,33.70
2023-05-22T02:50:39.269Z,33.70
2023-05-22T02:53:41.836Z,33.70
2023-05-22T02:56:44.057Z,33.70
2023-05-22T02:59:46.281Z,33.60
2023-05-22T03:02:48.358Z,33.60
2023-05-22T03:05:53.711Z,33.50
2023-05-22T03:08:55.721Z,33.40
2023-05-22T03:11:58.009Z,33.00
2023-05-22T03:15:00.030Z,33.20
2023-05-22T03:18:02.376Z,33.10
2023-05-22T03:21:04.621Z,33.00
2023-05-22T03:24:07.711Z,33.10
2023-05-22T03:27:09.678Z,33.30
2023-05-22T03:30:12.437Z,33.20
2023-05-22T03:33:15.419Z,33.20
2023-05-22T03:36:19.240Z,33.40
2023-05-22T03:39:21.286Z,33.40
2023-05-22T03:42:23.590Z,33.10
2023-05-22T03:45:25.665Z,33.10
2023-05-22T03:48:27.971Z,32.80
2023-05-22T03:51:29.980Z,32.50
2023-05-22T03:54:32.341Z,32.80
2023-05-22T03:57:34.292Z,33.20
2023-05-22T04:00:38.420Z,33.40
2023-05-22T04:03:40.905Z,33.10
2023-05-22T04:06:43.687Z,33.30
2023-05-22T04:09:45.781Z,33.70
2023-05-22T04:12:47.989Z,34.00
2023-05-22T04:15:50.384Z,34.30
2023-05-22T04:18:52.785Z,34.30
2023-05-22T04:21:54.887Z,34.40
2023-05-22T04:24:57.713Z,34.30
2023-05-22T04:28:02.317Z,34.30
2023-05-22T04:31:06.497Z,34.00
2023-05-22T04:34:15.813Z,34.30
2023-05-22T04:37:20.115Z,34.80
2023-05-22T04:40:22.261Z,35.00
2023-05-22T04:43:26.828Z,35.00
2023-05-22T04:46:28.921Z,35.10
2023-05-22T04:49:32.008Z,35.80
2023-05-22T04:52:33.978Z,36.30
2023-05-22T04:55:36.965Z,36.60
2023-05-22T04:58:40.270Z,37.90
2023-05-22T05:01:46.187Z,39.00
2023-05-22T05:04:48.368Z,39.50
2023-05-22T05:07:51.731Z,39.60
2023-05-22T05:10:53.737Z,39.40
2023-05-22T05:13:56.027Z,39.50
2023-05-22T05:16:58.731Z,39.70
2023-05-22T05:20:01.372Z,39.60
2023-05-22T05:23:03.413Z,39.80
2023-05-22T05:26:05.797Z,39.60
2023-05-22T05:29:08.790Z,39.70
2023-05-22T05:32:12.544Z,40.20
2023-05-22T05:35:14.837Z,40.40
2023-05-22T05:38:17.416Z,40.70
2023-05-22T05:41:19.575Z,41.10
2023-05-22T05:44:21.792Z,40.70
2023-05-22T05:47:24.123Z,40.70
2023-05-22T05:50:26.586Z,41.40
2023-05-22T05:53:28.892Z,41.80
2023-05-22T05:56:31.542Z,42.20
2023-05-22T05:59:33.516Z,42.40
2023-05-22T06:02:36.079Z,42.70
2023-05-22T06:05:38.361Z,42.90
2023-05-22T06:08:42.250Z,43.10
2023-05-22T06:11:44.209Z,43.10
2023-05-22T06:14:46.537Z,42.70
2023-05-22T06:17:48.529Z,43.00
2023-05-22T06:20:50.819Z,43.20
2023-05-22T06:23:52.841Z,43.20
2023-05-22T06:26:55.103Z,43.50
2023-05-22T06:29:57.175Z,43.70
2023-05-22T06:32:59.599Z,44.10
2023-05-22T06:36:02.344Z,44.30
2023-05-22T06:39:05.033Z,44.40
2023-05-22T06:42:07.356Z,44.10
2023-05-22T06:45:10.137Z,44.40
2023-05-22T06:48:12.281Z,44.60
2023-05-22T06:51:15.155Z,44.50
2023-05-22T06:54:17.432Z,44.80
2023-05-22T06:57:19.668Z,44.60
2023-05-22T07:00:36.803Z,44.40
2023-05-22T07:03:39.324Z,44.60
2023-05-22T07:06:42.483Z,44.60
2023-05-22T07:09:45.045Z,44.80
2023-05-22T07:12:46.989Z,44.50
2023-05-22T07:15:49.245Z,44.50
2023-05-22T07:18:51.274Z,44.50
2023-05-22T07:21:54.393Z,44.40
2023-05-22T07:24:56.352Z,44.60
2023-05-22T07:27:58.802Z,44.60
2023-05-22T07:31:00.972Z,44.50
2023-05-22T07:34:03.189Z,44.10
2023-05-22T07:37:11.862Z,44.10
2023-05-22T07:40:14.234Z,44.30
2023-05-22T07:43:16.175Z,44.10
2023-05-22T07:46:18.658Z,43.90
2023-05-22T07:49:22.069Z,43.70
2023-05-22T07:52:24.432Z,43.60
2023-05-22T07:55:26.388Z,43.60
2023-05-22T07:58:28.677Z,43.50
2023-05-22T08:01:30.621Z,43.50
2023-05-22T08:04:33.111Z,43.70
2023-05-22T08:07:35.860Z,43.50
2023-05-22T08:13:44.368Z,43.50
2023-05-22T08:16:46.744Z,43.30
2023-05-22T08:19:48.964Z,43.60
2023-05-22T08:22:51.824Z,43.50
2023-05-22T08:25:53.863Z,43.40
2023-05-22T08:28:56.416Z,43.20
2023-05-22T08:31:58.554Z,43.30
2023-05-22T08:35:01.508Z,43.30
2023-05-22T08:38:03.459Z,43.00
2023-05-22T08:41:07.849Z,42.80
2023-05-22T08:44:11.061Z,42.30
2023-05-22T08:47:15.230Z,41.50
2023-05-22T08:50:18.079Z,40.50
2023-05-22T08:53:24.021Z,39.80
2023-05-22T08:56:29.176Z,39.40
2023-05-22T08:59:32.176Z,39.30
2023-05-22T09:02:34.365Z,39.70
2023-05-22T09:05:36.753Z,39.60
2023-05-22T09:08:39.195Z,39.30
2023-05-22T09:11:41.505Z,39.10
2023-05-22T09:14:44.616Z,39.00
2023-05-22T09:17:46.950Z,39.20
2023-05-22T09:20:50.808Z,38.70
2023-05-22T09:23:53.129Z,38.50
2023-05-22T09:26:55.234Z,38.40
2023-05-22T09:29:58.363Z,38.50
2023-05-22T09:33:00.663Z,38.60
2023-05-22T09:36:03.201Z,38.60
2023-05-22T09:39:05.487Z,38.30
2023-05-22T09:42:15.025Z,38.20
2023-05-22T09:45:21.478Z,38.30
2023-05-22T09:48:24.423Z,38.50
2023-05-22T09:51:27.388Z,38.30
2023-05-22T09:54:33.568Z,38.20
2023-05-22T09:57:48.582Z,38.10
2023-05-22T10:00:51.067Z,38.10
2023-05-22T10:03:56.373Z,38.60
2023-05-22T10:07:02.410Z,38.10
2023-05-22T10:10:09.209Z,37.60
2023-05-22T10:13:11.832Z,37.70
2023-05-22T10:16:16.787Z,37.60
2023-05-22T10:19:19.649Z,38.00
2023-05-22T10:22:38.557Z,37.90
2023-05-22T10:25:41.443Z,38.00
2023-05-22T10:28:50.718Z,38.00
2023-05-22T10:32:30.674Z,38.00
2023-05-22T10:36:01.773Z,38.10
2023-05-22T10:39:12.810Z,38.80
2023-05-22T10:42:15.361Z,38.30
2023-05-22T10:45:17.701Z,38.60
2023-05-22T10:48:23.165Z,38.10
2023-05-22T10:51:26.320Z,38.30
2023-05-22T10:54:45.579Z,38.50
2023-05-22T10:57:48.390Z,38.40
2023-05-22T11:01:07.236Z,37.80
2023-05-22T11:04:15.677Z,37.40
2023-05-22T11:07:17.776Z,37.70
2023-05-22T11:10:27.176Z,37.20
2023-05-22T11:13:29.618Z,37.10
2023-05-22T11:16:33.595Z,37.60
2023-05-22T11:19:35.751Z,38.20
2023-05-22T11:22:46.966Z,38.20
2023-05-22T11:25:51.714Z,38.40
2023-05-22T11:28:54.319Z,38.20
2023-05-22T11:31:58.455Z,37.90
2023-05-22T11:35:01.500Z,37.50
2023-05-22T11:38:07.249Z,37.00
2023-05-22T11:41:11.532Z,36.80
2023-05-22T11:44:13.490Z,37.10
2023-05-22T11:47:16.289Z,37.30
2023-05-22T11:50:29.242Z,37.80
2023-05-22T11:53:36.799Z,37.80
2023-05-22T11:56:38.824Z,38.30
2023-05-22T11:59:47.750Z,38.30
2023-05-22T12:02:49.933Z,38.30
2023-05-22T12:05:52.435Z,38.50
2023-05-22T12:08:57.870Z,38.50
2023-05-22T12:12:01.453Z,38.60
2023-05-22T12:15:06.409Z,37.70
2023-05-22T12:18:09.836Z,37.70
2023-05-22T12:21:11.900Z,37.20
2023-05-22T12:24:14.103Z,37.30
2023-05-22T12:27:16.014Z,37.30
2023-05-22T12:30:18.814Z,37.50
2023-05-22T12:33:25.738Z,37.00
2023-05-22T12:36:41.490Z,37.60
2023-05-22T12:39:56.913Z,38.10
2023-05-22T12:42:59.245Z,38.60
2023-05-22T12:46:02.830Z,39.10
2023-05-22T12:49:05.633Z,39.10
2023-05-22T12:52:07.657Z,39.10
2023-05-22T12:55:11.155Z,38.50
2023-05-22T12:58:13.157Z,38.40
2023-05-22T13:01:15.618Z,38.10
2023-05-22T13:04:17.793Z,38.00
2023-05-22T13:07:20.096Z,38.30
2023-05-22T13:10:22.177Z,38.80
2023-05-22T13:13:24.811Z,37.60
2023-05-22T13:16:26.912Z,37.20
2023-05-22T13:19:29.236Z,37.90
2023-05-22T13:22:31.331Z,38.60
2023-05-22T13:25:34.540Z,38.80
2023-05-22T13:28:36.512Z,38.70
2023-05-22T13:31:38.861Z,38.30
2023-05-22T13:34:42.769Z,38.90
2023-05-22T13:37:45.264Z,39.20
2023-05-22T13:40:48.667Z,38.80
2023-05-22T13:43:54.033Z,38.20
2023-05-22T13:46:56.223Z,38.50
2023-05-22T13:49:58.495Z,38.80
2023-05-22T13:53:00.586Z,38.90
2023-05-22T13:56:02.789Z,38.80
2023-05-22T13:59:09.338Z,38.90
2023-05-22T14:02:11.750Z,38.20
2023-05-22T14:05:13.837Z,37.70
2023-05-22T14:08:16.217Z,37.40
2023-05-22T14:11:18.192Z,37.50
2023-05-22T14:14:23.906Z,37.90
2023-05-22T14:17:26.086Z,38.50
2023-05-22T14:20:28.357Z,38.40
2023-05-22T14:23:30.447Z,38.50
2023-05-22T14:26:32.828Z,38.50
2023-05-22T14:29:35.011Z,38.60
2023-05-22T14:32:39.120Z,38.70
2023-05-22T14:35:41.392Z,38.10
2023-05-22T14:38:43.786Z,38.20
2023-05-22T14:41:46.020Z,37.50
2023-05-22T14:44:48.198Z,37.30
2023-05-22T14:47:50.494Z,38.10
2023-05-22T14:50:55.838Z,38.10
2023-05-22T14:53:58.194Z,38.20
2023-05-22T14:57:01.472Z,38.40
2023-05-22T15:00:06.450Z,38.60
2023-05-22T15:03:08.976Z,38.50
2023-05-22T15:06:10.957Z,37.50
2023-05-22T15:09:13.178Z,37.50
2023-05-22T15:12:15.155Z,37.80
2023-05-22T15:15:17.832Z,38.40
2023-05-22T15:18:20.176Z,37.80
2023-05-22T15:21:22.741Z,38.10
2023-05-22T15:24:24.803Z,38.10
2023-05-22T15:27:27.074Z,37.80
2023-05-22T15:30:30.913Z,37.40
2023-05-22T15:33:34.312Z,37.70
2023-05-22T15:36:40.355Z,38.00
2023-05-22T15:39:42.545Z,38.00
2023-05-22T15:42:44.686Z,38.40
2023-05-22T15:45:50.916Z,38.50
2023-05-22T15:48:54.692Z,37.60
2023-05-22T15:52:01.080Z,37.50
2023-05-22T15:55:03.371Z,37.90
2023-05-22T15:58:07.906Z,37.50
2023-05-22T16:01:12.152Z,38.00
2023-05-22T16:04:14.512Z,38.30
2023-05-22T16:07:18.845Z,37.70
2023-05-22T16:10:21.630Z,37.80
2023-05-22T16:13:23.620Z,38.10
2023-05-22T16:16:26.519Z,38.10
2023-05-22T16:19:28.770Z,38.30
2023-05-22T16:22:47.480Z,38.00
2023-05-22T16:25:50.964Z,37.90
2023-05-22T16:28:53.286Z,37.20
2023-05-22T16:31:56.750Z,37.70
2023-05-22T16:34:59.294Z,37.90
2023-05-22T16:38:01.847Z,37.90
2023-05-22T16:41:04.270Z,38.00
2023-05-22T16:44:06.327Z,37.60
2023-05-22T16:47:08.648Z,37.50
2023-05-22T16:50:10.902Z,37.50
2023-05-22T16:53:13.757Z,37.50
2023-05-22T16:56:16.995Z,38.20
2023-05-22T16:59:19.655Z,37.60
2023-05-22T17:02:21.825Z,38.10
2023-05-22T17:05:24.727Z,37.90
2023-05-22T17:08:28.390Z,38.10
2023-05-22T17:11:30.784Z,37.90
2023-05-22T17:14:34.382Z,37.90
2023-05-22T17:17:36.640Z,38.00
2023-05-22T17:20:38.610Z,38.00
2023-05-22T17:23:40.868Z,37.80
2023-05-22T17:26:43.964Z,37.80
2023-05-22T17:29:46.209Z,37.70
2023-05-22T17:32:48.195Z,37.60
2023-05-22T17:35:51.198Z,37.50
2023-05-22T17:38:53.225Z,37.70
2023-05-22T17:41:55.543Z,37.60
2023-05-22T17:44:57.443Z,37.50
2023-05-22T17:47:59.726Z,37.80
2023-05-22T17:51:02.124Z,38.00
2023-05-22T17:54:06.049Z,38.20
2023-05-22T17:57:08.085Z,38.10
2023-05-22T18:00:11.133Z,38.00
2023-05-22T18:03:13.415Z,38.30
2023-05-22T18:06:15.957Z,38.10
2023-05-22T18:09:18.030Z,38.20
2023-05-22T18:15:28.160Z,38.10
2023-05-22T18:18:30.473Z,38.10
2023-05-22T18:21:32.436Z,38.00
2023-05-22T18:24:36.570Z,38.00
2023-05-22T18:27:41.232Z,38.00
2023-05-22T18:30:44.926Z,38.10
2023-05-22T18:33:47.093Z,37.90
2023-05-22T18:36:49.615Z,37.90
2023-05-22T18:39:51.694Z,37.50
2023-05-22T18:42:57.662Z,37.40
2023-05-22T18:45:59.805Z,37.30
2023-05-22T18:49:02.248Z,37.40
2023-05-22T18:52:06.405Z,37.30
2023-05-22T18:55:10.252Z,37.20
2023-05-22T18:58:12.231Z,37.10
2023-05-22T19:01:17.300Z,37.20
2023-05-22T19:04:22.637Z,37.30
2023-05-22T19:07:24.977Z,37.20
2023-05-22T19:10:27.255Z,37.10
2023-05-22T19:13:30.502Z,37.00
2023-05-22T19:16:32.574Z,36.90
2023-05-22T19:19:37.507Z,36.70
2023-05-22T19:22:39.513Z,36.70
2023-05-22T19:25:42.096Z,36.70
2023-05-22T19:28:44.207Z,36.50
2023-05-22T19:31:46.607Z,36.60
2023-05-22T19:34:49.187Z,36.60
2023-05-22T19:37:51.700Z,36.50
2023-05-22T19:40:54.081Z,36.40
2023-05-22T19:43:56.720Z,36.40
2023-05-22T19:46:58.767Z,36.20
2023-05-22T19:50:02.059Z,36.20
2023-05-22T19:53:04.020Z,36.20
2023-05-22T19:56:06.708Z,36.20
2023-05-22T19:59:08.757Z,36.20
2023-05-22T20:02:11.907Z,36.10
2023-05-22T20:05:13.986Z,36.00
2023-05-22T20:08:16.650Z,36.00
2023-05-22T20:11:19.650Z,35.90
2023-05-22T20:14:22.931Z,35.90
2023-05-22T20:17:24.996Z,35.80
2023-05-22T20:20:27.508Z,35.70
2023-05-22T20:23:29.542Z,35.60
2023-05-22T20:26:31.868Z,35.60
2023-05-22T20:29:34.717Z,35.50
2023-05-22T20:32:39.258Z,35.50
2023-05-22T20:35:42.233Z,35.50
2023-05-22T20:38:44.832Z,35.40
2023-05-22T20:41:50.906Z,35.30
2023-05-22T20:44:53.233Z,35.20
2023-05-22T20:47:55.788Z,35.20
2023-05-22T20:50:58.463Z,35.10
2023-05-22T20:54:00.819Z,35.10
2023-05-22T20:57:03.545Z,35.00
2023-05-22T21:00:09.075Z,34.90
2023-05-22T21:03:12.318Z,34.90
2023-05-22T21:06:14.388Z,34.90
2023-05-22T21:09:16.761Z,34.80
2023-05-22T21:12:19.149Z,34.80
2023-05-22T21:15:21.431Z,34.80
2023-05-22T21:18:24.203Z,34.80
2023-05-22T21:21:26.456Z,34.70
2023-05-22T21:24:28.468Z,34.60
2023-05-22T21:27:30.789Z,34.60
2023-05-22T21:30:33.512Z,34.50
2023-05-22T21:33:36.372Z,34.40
2023-05-22T21:36:41.307Z,34.50
2023-05-22T21:39:43.548Z,34.40
2023-05-22T21:42:47.408Z,34.40
2023-05-22T21:45:51.201Z,34.30
2023-05-22T21:48:53.921Z,34.30
2023-05-22T21:51:56.828Z,34.30
2023-05-22T21:55:02.688Z,34.30
2023-05-22T21:58:05.538Z,34.20
2023-05-22T22:01:07.794Z,34.20
2023-05-22T22:04:13.090Z,34.20
2023-05-22T22:07:15.231Z,34.10
2023-05-22T22:10:17.950Z,34.10
2023-05-22T22:13:19.921Z,34.00
2023-05-22T22:16:22.583Z,34.00
2023-05-22T22:19:24.645Z,34.00
2023-05-22T22:22:27.062Z,34.00
2023-05-22T22:25:29.097Z,34.00
2023-05-22T22:28:31.748Z,34.00
2023-05-22T22:31:33.741Z,33.90
2023-05-22T22:34:36.625Z,33.90
2023-05-22T22:37:38.680Z,33.90
2023-05-22T22:40:41.372Z,33.80
2023-05-22T22:43:43.880Z,33.80
2023-05-22T22:46:46.464Z,33.90
2023-05-22T22:49:49.770Z,33.80
2023-05-22T22:52:52.067Z,33.70
2023-05-22T22:55:57.674Z,33.70
2023-05-22T22:59:00.402Z,33.70
2023-05-22T23:02:02.514Z,33.70
2023-05-22T23:05:05.424Z,33.60
2023-05-22T23:08:07.474Z,33.70
2023-05-22T23:11:10.101Z,33.60
2023-05-22T23:14:13.512Z,33.60
2023-05-22T23:17:16.208Z,33.60
2023-05-22T23:20:18.313Z,33.60
2023-05-22T23:23:20.858Z,33.60
2023-05-22T23:26:23.019Z,33.60
2023-05-22T23:29:26.033Z,33.40
2023-05-22T23:32:28.534Z,33.50
2023-05-22T23:35:31.076Z,33.50
2023-05-22T23:38:33.153Z,33.50
2023-05-22T23:41:35.602Z,33.50
2023-05-22T23:44:39.048Z,33.40
2023-05-22T23:47:41.616Z,33.40
2023-05-22T23:50:43.785Z,33.40
2023-05-22T23:53:46.169Z,33.40
2023-05-22T23:56:48.463Z,33.40
2023-05-22T23:59:50.932Z,33.30
